createdAt,value
2018-01-25T00:02:09.415Z,27.25
2018-01-25T00:04:37.686Z,36.38
2018-01-25T00:07:05.955Z,33.05
2018-01-25T00:09:33.442Z,31.30
2018-01-25T00:12:00.946Z,33.00
2018-01-25T00:14:28.438Z,35.03
2018-01-25T00:16:56.706Z,33.78
2018-01-25T00:19:24.199Z,37.25
2018-01-25T00:21:51.822Z,33.65
2018-01-25T00:24:19.322Z,36.35
2018-01-25T00:26:46.822Z,34.60
2018-01-25T00:29:14.322Z,35.78
2018-01-25T00:31:42.597Z,35.75
2018-01-25T00:34:10.095Z,33.35
2018-01-25T00:36:37.810Z,32.20
2018-01-25T00:39:06.078Z,33.55
2018-01-25T00:41:34.392Z,34.75
2018-01-25T00:44:01.888Z,33.38
2018-01-25T00:46:29.382Z,32.60
2018-01-25T00:48:57.655Z,31.25
2018-01-25T00:51:25.932Z,34.92
2018-01-25T00:53:54.190Z,29.12
2018-01-25T00:56:21.694Z,31.02
2018-01-25T00:58:49.198Z,31.37
2018-01-25T01:01:16.702Z,31.40
2018-01-25T01:03:44.200Z,31.37
2018-01-25T01:06:11.707Z,30.15
2018-01-25T01:08:39.986Z,29.70
2018-01-25T01:11:07.485Z,29.65
2018-01-25T01:13:34.978Z,29.17
2018-01-25T01:16:02.476Z,27.50
2018-01-25T01:18:29.971Z,29.40
2018-01-25T01:20:57.470Z,29.30
2018-01-25T01:23:25.730Z,30.10
2018-01-25T01:25:54.007Z,28.48
2018-01-25T01:28:21.504Z,29.05
2018-01-25T01:30:49.007Z,28.05
2018-01-25T01:33:16.530Z,29.40
2018-01-25T01:35:44.031Z,28.23
2018-01-25T01:38:14.187Z,29.00
2018-01-25T01:40:41.699Z,27.98
2018-01-25T01:43:09.207Z,29.17
2018-01-25T01:45:36.710Z,30.45
2018-01-25T01:48:04.219Z,31.25
2018-01-25T01:50:31.763Z,29.35
2018-01-25T01:53:00.027Z,30.62
2018-01-25T01:55:27.538Z,29.12
2018-01-25T01:57:55.027Z,29.95
2018-01-25T02:00:23.027Z,31.77
2018-01-25T02:02:51.295Z,30.20
2018-01-25T02:05:19.558Z,30.67
2018-01-25T02:07:48.558Z,31.30
2018-01-25T02:10:16.052Z,32.03
2018-01-25T02:12:43.551Z,31.83
2018-01-25T02:15:11.055Z,30.33
2018-01-25T02:17:39.318Z,30.20
2018-01-25T02:20:07.570Z,29.80
2018-01-25T02:22:35.084Z,29.00
2018-01-25T02:25:02.574Z,30.55
2018-01-25T02:27:30.071Z,30.48
2018-01-25T02:29:58.359Z,29.58
2018-01-25T02:32:26.614Z,29.95
2018-01-25T02:34:54.872Z,30.37
2018-01-25T02:37:22.366Z,31.37
2018-01-25T02:39:50.629Z,30.10
2018-01-25T02:42:18.930Z,27.90
2018-01-25T02:44:46.447Z,29.60
2018-01-25T02:47:13.938Z,31.60
2018-01-25T02:49:41.435Z,30.25
2018-01-25T02:52:09.146Z,28.98
2018-01-25T02:54:37.406Z,29.42
2018-01-25T02:57:04.910Z,30.27
2018-01-25T02:59:32.447Z,29.40
2018-01-25T03:02:00.714Z,28.58
2018-01-25T03:04:28.982Z,31.20
2018-01-25T03:06:56.478Z,27.90
2018-01-25T03:09:23.970Z,29.67
2018-01-25T03:11:51.501Z,30.83
2018-01-25T03:14:19.027Z,28.45
2018-01-25T03:16:47.323Z,30.27
2018-01-25T03:19:14.824Z,29.50
2018-01-25T03:21:42.319Z,29.90
2018-01-25T03:24:10.574Z,29.00
2018-01-25T03:26:38.066Z,30.95
2018-01-25T03:29:05.570Z,32.90
2018-01-25T03:31:33.113Z,32.92
2018-01-25T03:34:00.599Z,32.50
2018-01-25T03:36:28.112Z,31.77
2018-01-25T03:38:55.607Z,31.87
2018-01-25T03:41:23.118Z,32.67
2018-01-25T03:43:50.631Z,30.58
2018-01-25T03:46:26.259Z,31.58
2018-01-25T03:48:53.766Z,31.20
2018-01-25T03:51:22.048Z,32.33
2018-01-25T03:53:50.307Z,29.80
2018-01-25T03:56:18.571Z,27.98
2018-01-25T03:58:46.088Z,31.58
2018-01-25T04:01:13.592Z,30.33
2018-01-25T04:03:41.095Z,29.80
2018-01-25T04:06:08.594Z,31.27
2018-01-25T04:08:36.090Z,29.25
2018-01-25T04:11:04.356Z,33.65
2018-01-25T04:13:32.614Z,32.72
2018-01-25T04:16:00.126Z,31.50
2018-01-25T04:18:27.769Z,33.70
2018-01-25T04:20:56.031Z,33.53
2018-01-25T04:23:24.294Z,36.70
2018-01-25T04:25:51.803Z,32.28
2018-01-25T04:28:19.294Z,31.90
2018-01-25T04:30:46.806Z,31.30
2018-01-25T04:33:14.302Z,34.25
2018-01-25T04:35:41.818Z,33.45
2018-01-25T04:38:09.316Z,30.70
2018-01-25T04:40:36.806Z,31.62
2018-01-25T04:43:04.305Z,32.72
2018-01-25T04:45:31.809Z,30.80
2018-01-25T04:47:59.322Z,33.22
2018-01-25T04:50:26.820Z,30.02
2018-01-25T04:52:54.315Z,38.25
2018-01-25T04:55:22.586Z,40.63
2018-01-25T04:57:50.848Z,36.85
2018-01-25T05:00:18.363Z,41.22
2018-01-25T05:02:45.903Z,39.63
2018-01-25T05:05:13.399Z,40.85
2018-01-25T05:07:40.894Z,39.88
2018-01-25T05:10:09.279Z,44.60
2018-01-25T05:12:37.538Z,39.22
2018-01-25T05:15:05.055Z,43.10
2018-01-25T05:17:33.496Z,39.33
2018-01-25T05:20:01.758Z,39.17
2018-01-25T05:22:30.047Z,36.25
2018-01-25T05:24:57.700Z,38.55
2018-01-25T05:27:25.964Z,44.33
2018-01-25T05:29:53.464Z,43.72
2018-01-25T05:32:20.975Z,42.58
2018-01-25T05:34:48.471Z,37.35
2018-01-25T05:37:15.982Z,47.47
2018-01-25T05:39:43.478Z,58.63
2018-01-25T05:42:11.747Z,58.42
2018-01-25T05:44:40.011Z,41.92
2018-01-25T05:47:07.507Z,38.45
2018-01-25T05:49:35.002Z,39.15
2018-01-25T05:52:02.515Z,40.05
2018-01-25T05:54:30.015Z,40.35
2018-01-25T05:56:57.603Z,39.83
2018-01-25T05:59:25.104Z,38.55
2018-01-25T06:01:52.598Z,36.75
2018-01-25T06:04:20.112Z,36.95
2018-01-25T06:06:47.615Z,38.78
2018-01-25T06:09:15.130Z,47.20
2018-01-25T06:11:42.628Z,52.67
2018-01-25T06:14:10.147Z,88.82
2018-01-25T06:16:37.786Z,64.68
2018-01-25T06:19:06.053Z,49.78
2018-01-25T06:21:34.315Z,41.72
2018-01-25T06:24:01.806Z,35.05
2018-01-25T06:26:29.298Z,34.35
2018-01-25T06:28:56.797Z,34.80
2018-01-25T06:31:24.307Z,31.35
2018-01-25T06:33:51.803Z,35.35
2018-01-25T06:36:19.315Z,33.53
2018-01-25T06:38:46.806Z,31.83
2018-01-25T06:41:14.323Z,36.13
2018-01-25T06:43:41.820Z,35.55
2018-01-25T06:46:09.327Z,38.67
2018-01-25T06:48:37.599Z,33.95
2018-01-25T06:51:06.087Z,35.72
2018-01-25T06:53:33.606Z,35.88
2018-01-25T06:56:01.104Z,41.67
2018-01-25T06:58:28.602Z,42.55
2018-01-25T07:00:56.127Z,40.22
2018-01-25T07:03:23.641Z,39.17
2018-01-25T07:05:51.155Z,38.03
2018-01-25T07:08:19.354Z,37.75
2018-01-25T07:10:46.863Z,37.45
2018-01-25T07:13:15.143Z,35.35
2018-01-25T07:15:43.402Z,36.17
2018-01-25T07:18:11.683Z,33.95
2018-01-25T07:20:39.958Z,31.42
2018-01-25T07:23:08.293Z,34.38
2018-01-25T07:25:37.834Z,32.72
2018-01-25T07:28:05.328Z,30.88
2018-01-25T07:30:32.826Z,34.33
2018-01-25T07:33:00.322Z,31.35
2018-01-25T07:35:28.586Z,31.37
2018-01-25T07:37:56.082Z,30.55
2018-01-25T07:40:23.579Z,30.52
2018-01-25T07:42:51.115Z,29.40
2018-01-25T07:45:18.626Z,30.70
2018-01-25T07:47:46.922Z,31.00
2018-01-25T07:50:19.654Z,32.85
2018-01-25T07:52:49.606Z,33.80
2018-01-25T07:55:17.883Z,32.65
2018-01-25T07:57:51.827Z,30.95
2018-01-25T08:00:19.843Z,32.90
2018-01-25T08:02:47.375Z,32.70
2018-01-25T08:05:14.866Z,31.17
2018-01-25T08:07:43.146Z,32.05
2018-01-25T08:10:11.411Z,28.52
2018-01-25T08:12:38.907Z,30.62
2018-01-25T08:15:06.403Z,29.27
2018-01-25T08:17:33.898Z,29.20
2018-01-25T08:20:02.167Z,29.15
2018-01-25T08:22:30.565Z,30.10
2018-01-25T08:24:58.874Z,28.08
2018-01-25T08:27:26.377Z,26.83
2018-01-25T08:29:53.878Z,27.13
2018-01-25T08:32:21.434Z,30.20
2018-01-25T08:34:48.966Z,29.37
2018-01-25T08:37:17.241Z,29.48
2018-01-25T08:39:45.521Z,30.25
2018-01-25T08:42:17.030Z,29.70
2018-01-25T08:44:44.536Z,29.70
2018-01-25T08:47:12.833Z,29.58
2018-01-25T08:49:42.250Z,31.62
2018-01-25T08:52:10.079Z,30.55
2018-01-25T08:54:38.963Z,29.05
2018-01-25T08:57:07.268Z,31.40
2018-01-25T08:59:34.787Z,29.92
2018-01-25T09:02:02.330Z,31.02
2018-01-25T09:04:34.721Z,30.62
2018-01-25T09:07:03.007Z,33.30
2018-01-25T09:09:31.287Z,35.45
2018-01-25T09:12:00.515Z,30.40
2018-01-25T09:14:28.044Z,30.88
2018-01-25T09:16:56.318Z,28.87
2018-01-25T09:19:24.618Z,29.12
2018-01-25T09:21:52.131Z,28.95
2018-01-25T09:24:19.689Z,31.30
2018-01-25T09:26:47.218Z,31.37
2018-01-25T09:29:14.742Z,31.25
2018-01-25T09:31:43.041Z,29.17
2018-01-25T09:34:10.586Z,30.23
2018-01-25T09:36:38.094Z,28.98
2018-01-25T09:39:05.621Z,29.25
2018-01-25T09:41:33.163Z,28.98
2018-01-25T09:44:00.666Z,30.15
2018-01-25T09:46:31.570Z,31.95
2018-01-25T09:48:59.169Z,33.10
2018-01-25T09:51:26.757Z,31.40
2018-01-25T09:53:54.463Z,32.15
2018-01-25T09:56:22.094Z,33.95
2018-01-25T09:58:50.435Z,31.40
2018-01-25T10:01:17.963Z,32.97
2018-01-25T10:03:45.542Z,30.35
2018-01-25T10:06:18.092Z,34.20
2018-01-25T10:08:45.831Z,32.25
2018-01-25T10:11:14.143Z,33.60
2018-01-25T10:13:41.718Z,32.65
2018-01-25T10:16:09.300Z,32.08
2018-01-25T10:18:36.916Z,33.08
2018-01-25T10:21:04.720Z,35.63
2018-01-25T10:23:32.254Z,34.10
2018-01-25T10:25:59.911Z,34.13
2018-01-25T10:28:37.943Z,34.58
2018-01-25T10:31:05.465Z,33.45
2018-01-25T10:33:33.191Z,34.80
2018-01-25T10:36:01.573Z,38.90
2018-01-25T10:38:29.865Z,36.05
2018-01-25T10:40:57.567Z,33.15
2018-01-25T10:43:25.307Z,36.55
2018-01-25T10:45:52.958Z,35.30
2018-01-25T10:48:20.605Z,35.63
2018-01-25T10:50:49.029Z,37.22
2018-01-25T10:53:16.574Z,33.92
2018-01-25T10:55:44.138Z,36.72
2018-01-25T10:58:13.395Z,35.17
2018-01-25T11:00:47.550Z,34.92
2018-01-25T11:03:15.146Z,37.83
2018-01-25T11:05:42.861Z,36.13
2018-01-25T11:08:11.224Z,36.35
2018-01-25T11:10:39.548Z,36.60
2018-01-25T11:13:07.136Z,35.25
2018-01-25T11:15:35.766Z,33.28
2018-01-25T11:18:03.457Z,36.03
2018-01-25T11:20:31.120Z,34.90
2018-01-25T11:22:58.866Z,34.90
2018-01-25T11:25:26.502Z,35.22
2018-01-25T11:27:54.165Z,34.15
2018-01-25T11:30:21.740Z,38.50
2018-01-25T11:32:49.345Z,37.50
2018-01-25T11:35:16.935Z,36.67
2018-01-25T11:37:45.492Z,35.38
2018-01-25T11:40:13.080Z,36.20
2018-01-25T11:42:40.675Z,34.53
2018-01-25T11:45:08.319Z,35.20
2018-01-25T11:47:35.901Z,34.80
2018-01-25T11:50:03.624Z,34.60
2018-01-25T11:52:32.009Z,35.03
2018-01-25T11:54:59.806Z,33.30
2018-01-25T11:57:27.387Z,34.13
2018-01-25T11:59:54.928Z,31.98
2018-01-25T12:02:22.488Z,32.03
2018-01-25T12:04:50.123Z,33.80
2018-01-25T12:07:18.229Z,33.50
2018-01-25T12:09:45.896Z,33.53
2018-01-25T12:12:13.526Z,32.50
2018-01-25T12:14:41.123Z,31.00
2018-01-25T12:17:08.733Z,33.20
2018-01-25T12:19:36.301Z,33.85
2018-01-25T12:22:21.816Z,32.30
2018-01-25T12:24:49.451Z,33.05
2018-01-25T12:27:17.111Z,32.80
2018-01-25T12:29:44.772Z,33.35
2018-01-25T12:32:12.410Z,32.40
2018-01-25T12:34:40.804Z,32.42
2018-01-25T12:37:08.375Z,32.83
2018-01-25T12:39:36.031Z,33.75
2018-01-25T12:42:03.611Z,33.75
2018-01-25T12:44:31.232Z,33.03
2018-01-25T12:46:59.587Z,35.25
2018-01-25T12:49:27.265Z,33.78
2018-01-25T12:51:55.677Z,34.17
2018-01-25T12:54:23.583Z,35.80
2018-01-25T12:56:51.319Z,32.55
2018-01-25T12:59:19.004Z,33.88
2018-01-25T13:01:46.727Z,34.72
2018-01-25T13:04:14.381Z,36.00
2018-01-25T13:06:41.960Z,33.78
2018-01-25T13:09:09.522Z,35.13
2018-01-25T13:11:37.202Z,33.28
2018-01-25T13:14:15.862Z,36.25
2018-01-25T13:16:44.380Z,33.78
2018-01-25T13:19:11.964Z,36.13
2018-01-25T13:21:39.504Z,35.45
2018-01-25T13:24:07.042Z,31.33
2018-01-25T13:26:34.754Z,31.45
2018-01-25T13:29:02.337Z,33.15
2018-01-25T13:31:30.767Z,31.98
2018-01-25T13:33:58.323Z,35.00
2018-01-25T13:36:28.986Z,35.33
2018-01-25T13:38:56.590Z,34.93
2018-01-25T13:41:24.297Z,35.30
2018-01-25T13:43:51.888Z,36.77
2018-01-25T13:46:19.429Z,37.37
2018-01-25T13:48:47.099Z,37.50
2018-01-25T13:51:14.701Z,36.00
2018-01-25T13:53:42.622Z,37.93
2018-01-25T13:56:10.258Z,39.10
2018-01-25T13:58:40.620Z,55.27
2018-01-25T14:01:08.233Z,56.73
2018-01-25T14:03:35.785Z,38.30
2018-01-25T14:06:03.316Z,38.53
2018-01-25T14:08:31.747Z,37.30
2018-01-25T14:10:59.342Z,36.73
2018-01-25T14:13:26.962Z,38.77
2018-01-25T14:15:54.523Z,37.60
2018-01-25T14:18:28.737Z,37.67
2018-01-25T14:20:56.308Z,37.77
2018-01-25T14:23:23.861Z,36.93
2018-01-25T14:25:51.627Z,36.27
2018-01-25T14:28:19.233Z,38.10
2018-01-25T14:30:47.600Z,39.47
2018-01-25T14:33:15.930Z,38.27
2018-01-25T14:35:43.519Z,36.40
2018-01-25T14:38:11.125Z,35.33
2018-01-25T14:40:38.733Z,36.92
2018-01-25T14:43:06.311Z,36.50
2018-01-25T14:45:34.092Z,35.17
2018-01-25T14:48:01.710Z,35.20
2018-01-25T14:50:29.340Z,35.40
2018-01-25T14:52:56.854Z,35.55
2018-01-25T14:55:25.215Z,35.75
2018-01-25T14:57:52.875Z,32.55
2018-01-25T15:00:23.811Z,35.45
2018-01-25T15:02:51.379Z,35.08
2018-01-25T15:05:18.933Z,32.10
2018-01-25T15:07:46.485Z,31.98
2018-01-25T15:10:14.074Z,35.58
2018-01-25T15:12:43.158Z,34.80
2018-01-25T15:15:10.722Z,34.53
2018-01-25T15:17:39.063Z,32.35
2018-01-25T15:20:12.596Z,33.20
2018-01-25T15:22:40.163Z,32.15
2018-01-25T15:38:32.452Z,29.95
2018-01-25T15:41:00.078Z,29.40
2018-01-25T15:43:28.453Z,32.80
2018-01-25T15:45:56.811Z,32.97
2018-01-25T15:48:30.096Z,32.72
2018-01-25T15:50:57.661Z,32.47
2018-01-25T15:53:25.218Z,32.90
2018-01-25T15:55:52.821Z,34.28
2018-01-25T15:58:21.637Z,33.80
2018-01-25T16:00:49.202Z,32.45
2018-01-25T16:03:16.783Z,31.85
2018-01-25T16:05:44.517Z,34.28
2018-01-25T16:08:12.038Z,31.85
2018-01-25T16:10:40.303Z,34.08
2018-01-25T16:13:07.807Z,33.22
2018-01-25T16:15:35.724Z,33.72
2018-01-25T16:18:03.254Z,33.17
2018-01-25T16:20:30.754Z,32.75
2018-01-25T16:22:59.031Z,33.60
2018-01-25T16:25:27.310Z,33.58
2018-01-25T16:27:56.652Z,32.88
2018-01-25T16:30:24.150Z,34.88
2018-01-25T16:32:51.670Z,34.83
2018-01-25T16:35:19.175Z,35.85
2018-01-25T16:37:46.675Z,35.75
2018-01-25T16:40:25.751Z,36.70
2018-01-25T16:42:53.309Z,37.88
2018-01-25T16:45:20.788Z,34.40
2018-01-25T16:47:49.046Z,35.25
2018-01-25T16:50:17.328Z,36.08
2018-01-25T16:52:44.822Z,34.55
2018-01-25T16:55:12.335Z,37.10
2018-01-25T16:57:39.939Z,36.08
2018-01-25T17:00:07.446Z,33.17
2018-01-25T17:02:34.946Z,37.13
2018-01-25T17:05:02.467Z,35.00
2018-01-25T17:07:29.986Z,35.55
2018-01-25T17:09:57.499Z,35.53
2018-01-25T17:12:25.180Z,33.85
2018-01-25T17:14:53.483Z,33.55
2018-01-25T17:17:20.984Z,34.65
2018-01-25T17:19:48.591Z,32.55
2018-01-25T17:22:22.730Z,34.63
2018-01-25T17:24:50.246Z,31.83
2018-01-25T17:27:18.507Z,33.25
2018-01-25T17:29:46.007Z,34.03
2018-01-25T17:32:13.512Z,31.73
2018-01-25T17:34:41.019Z,33.15
2018-01-25T17:37:08.514Z,32.88
2018-01-25T17:39:36.014Z,32.33
2018-01-25T17:42:04.400Z,33.00
2018-01-25T17:44:32.671Z,32.55
2018-01-25T17:47:00.943Z,31.05
2018-01-25T17:49:29.203Z,31.48
2018-01-25T17:51:56.718Z,31.83
2018-01-25T17:54:24.226Z,32.22
2018-01-25T17:56:51.725Z,32.30
2018-01-25T17:59:19.234Z,31.27
2018-01-25T18:01:46.746Z,32.33
2018-01-25T18:04:14.259Z,31.60
2018-01-25T18:06:41.752Z,33.92
2018-01-25T18:09:09.267Z,31.30
2018-01-25T18:11:36.946Z,29.23
2018-01-25T18:14:05.210Z,30.95
2018-01-25T18:16:32.715Z,33.53
2018-01-25T18:19:00.211Z,32.45
2018-01-25T18:21:27.719Z,33.13
2018-01-25T18:23:55.219Z,32.65
2018-01-25T18:26:22.798Z,34.78
2018-01-25T18:28:50.330Z,31.95
2018-01-25T18:31:17.838Z,31.80
2018-01-25T18:33:46.114Z,34.63
2018-01-25T18:36:14.370Z,30.88
2018-01-25T18:38:41.879Z,31.98
2018-01-25T18:41:09.394Z,33.90
2018-01-25T18:43:37.662Z,31.80
2018-01-25T18:46:05.154Z,32.40
2018-01-25T18:48:32.675Z,30.70
2018-01-25T18:51:00.184Z,32.47
2018-01-25T18:53:27.686Z,32.88
2018-01-25T18:55:55.183Z,31.23
2018-01-25T18:58:22.695Z,32.80
2018-01-25T19:00:50.195Z,30.35
2018-01-25T19:03:18.458Z,31.25
2018-01-25T19:05:46.714Z,31.90
2018-01-25T19:08:14.254Z,32.63
2018-01-25T19:10:41.749Z,31.42
2018-01-25T19:13:10.027Z,30.77
2018-01-25T19:15:38.306Z,32.30
2018-01-25T19:18:06.571Z,31.83
2018-01-25T19:20:34.851Z,31.25
2018-01-25T19:23:03.130Z,32.20
2018-01-25T19:25:31.398Z,29.52
2018-01-25T19:27:58.906Z,31.52
2018-01-25T19:30:26.418Z,29.45
2018-01-25T19:32:53.926Z,31.52
2018-01-25T19:35:21.542Z,31.08
2018-01-25T19:37:49.814Z,31.12
2018-01-25T19:40:18.074Z,30.60
2018-01-25T19:42:45.570Z,31.45
2018-01-25T19:45:13.072Z,29.70
2018-01-25T19:47:40.599Z,30.08
2018-01-25T19:50:08.166Z,28.95
2018-01-25T19:52:35.811Z,28.98
2018-01-25T19:55:03.327Z,27.45
2018-01-25T19:57:30.837Z,29.52
2018-01-25T19:59:58.347Z,27.87
2018-01-25T20:02:31.956Z,29.55
2018-01-25T20:04:59.462Z,29.77
2018-01-25T20:07:26.971Z,29.10
2018-01-25T20:09:54.486Z,26.08
2018-01-25T20:12:22.052Z,27.40
2018-01-25T20:14:49.772Z,28.27
2018-01-25T20:17:18.038Z,26.77
2018-01-25T20:19:45.540Z,28.25
2018-01-25T20:22:13.082Z,25.92
2018-01-25T20:24:40.625Z,28.27
2018-01-25T20:27:08.940Z,26.35
2018-01-25T20:29:36.452Z,26.27
2018-01-25T20:32:05.563Z,26.37
2018-01-25T20:34:33.838Z,25.48
2018-01-25T20:37:02.108Z,25.77
2018-01-25T20:39:30.395Z,26.23
2018-01-25T20:41:58.667Z,27.02
2018-01-25T20:44:26.930Z,24.58
2018-01-25T20:46:55.219Z,26.48
2018-01-25T20:49:23.479Z,28.62
2018-01-25T20:51:50.979Z,26.65
2018-01-25T20:54:18.478Z,25.60
2018-01-25T20:56:45.971Z,23.70
2018-01-25T20:59:14.250Z,25.65
2018-01-25T21:01:42.527Z,26.80
2018-01-25T21:04:10.050Z,25.00
2018-01-25T21:06:37.547Z,27.25
2018-01-25T21:09:05.071Z,24.60
2018-01-25T21:11:32.582Z,26.10
2018-01-25T21:14:00.094Z,25.23
2018-01-25T21:16:27.597Z,25.70
2018-01-25T21:18:55.103Z,26.75
2018-01-25T21:21:22.595Z,25.50
2018-01-25T21:23:50.114Z,26.08
2018-01-25T21:26:17.611Z,25.02
2018-01-25T21:28:45.892Z,25.83
2018-01-25T21:31:13.403Z,25.58
2018-01-25T21:33:40.925Z,26.95
2018-01-25T21:36:08.431Z,26.37
2018-01-25T21:38:35.936Z,28.50
2018-01-25T21:41:03.447Z,27.95
2018-01-25T21:43:30.967Z,28.50
2018-01-25T21:45:58.462Z,29.27
2018-01-25T21:48:25.974Z,30.10
2018-01-25T21:50:53.471Z,26.90
2018-01-25T21:53:20.966Z,28.50
2018-01-25T21:55:49.226Z,28.55
2018-01-25T21:58:17.486Z,27.62
2018-01-25T22:00:44.982Z,27.73
2018-01-25T22:03:12.498Z,29.77
2018-01-25T22:05:39.995Z,30.20
2018-01-25T22:08:08.274Z,31.95
2018-01-25T22:10:36.742Z,27.23
2018-01-25T22:13:05.002Z,30.45
2018-01-25T22:15:32.538Z,29.70
2018-01-25T22:18:00.036Z,30.33
2018-01-25T22:20:28.342Z,30.65
2018-01-25T22:22:56.586Z,29.00
2018-01-25T22:25:24.897Z,28.80
2018-01-25T22:27:52.390Z,29.80
2018-01-25T22:30:19.913Z,30.45
2018-01-25T22:32:47.410Z,30.55
2018-01-25T22:35:15.006Z,31.83
2018-01-25T22:37:43.354Z,30.85
2018-01-25T22:40:10.870Z,28.98
2018-01-25T22:42:38.367Z,29.45
2018-01-25T22:45:05.880Z,31.25
2018-01-25T22:47:33.379Z,31.23
2018-01-25T22:50:00.883Z,31.00
2018-01-25T22:52:29.186Z,29.92
2018-01-25T22:54:56.693Z,29.50
2018-01-25T22:57:24.196Z,30.85
2018-01-25T22:59:51.690Z,29.55
2018-01-25T23:02:19.211Z,30.92
2018-01-25T23:04:46.707Z,29.95
2018-01-25T23:07:14.206Z,30.58
2018-01-25T23:09:42.486Z,35.05
2018-01-25T23:12:10.955Z,30.55
2018-01-25T23:14:39.218Z,31.50
2018-01-25T23:17:06.719Z,31.70
2018-01-25T23:19:34.214Z,32.17
2018-01-25T23:22:01.716Z,32.83
2018-01-25T23:24:29.970Z,32.45
2018-01-25T23:26:57.471Z,32.47
2018-01-25T23:29:24.975Z,32.03
2018-01-25T23:31:52.477Z,32.97
2018-01-25T23:34:19.971Z,32.17
2018-01-25T23:36:47.468Z,31.92
2018-01-25T23:39:15.749Z,31.77
2018-01-25T23:41:44.015Z,31.60
2018-01-25T23:44:22.659Z,34.90
2018-01-25T23:46:50.155Z,32.53
2018-01-25T23:49:17.657Z,31.85
2018-01-25T23:51:45.922Z,34.03
2018-01-25T23:54:13.421Z,34.55
2018-01-25T23:56:40.934Z,33.35
2018-01-25T23:59:08.450Z,32.80
